Flight Track Log - Related Links

Times and Time Zones

All times are in EDT time to prevent confusion due to time zone crossing. See the SWG606 flight status page for this flight to view local times or setup timezone preferences in your user account.

Time Position Orientation Groundspeed Altitude Reporting Facility
EDT Latitude Longitude Course Direction KTS MPH feet Rate Location/Type
Sun 03:40:53 PM 45.4610 -73.7650 221° Southwest 172 198 600  Level FlightAware ADS-B
Sun 03:41:09 PM 45.4510 -73.7770 221° Southwest 175 201 1,200 1,714 Climbing FlightAware ADS-B
Sun 03:41:28 PM 45.4380 -73.7930 221° Southwest 198 228 1,600 1,297 Climbing FlightAware ADS-B
Sun 03:41:46 PM 45.4250 -73.8090 221° Southwest 219 252 2,000 1,946 Climbing FlightAware ADS-B
Sun 03:42:05 PM 45.4110 -73.8260 222° Southwest 223 257 2,800 2,333 Climbing FlightAware ADS-B
Sun 03:42:22 PM 45.3960 -73.8440 222° Southwest 237 273 3,400 1,588 Climbing FlightAware ADS-B
Sun 03:42:39 PM 45.3810 -73.8630 222° Southwest 263 303 3,700 1,800 Climbing FlightAware ADS-B
Sun 03:42:52 PM 45.3690 -73.8760 212° Southwest 269 310 4,300 2,526 Climbing FlightAware ADS-B
Sun 03:42:58 PM 45.3620 -73.8810 206° Southwest 274 315 4,500 1,500 Climbing FlightAware ADS-B
Sun 03:43:04 PM 45.3540 -73.8850 200° South 281 323 4,600 2,000 Climbing FlightAware ADS-B
Sun 03:43:22 PM 45.3310 -73.8940 196° South 293 337 5,300 2,595 Climbing FlightAware ADS-B
Sun 03:43:41 PM 45.3080 -73.9030 197° South 296 341 6,200 3,000 Climbing FlightAware ADS-B
Sun 03:43:58 PM 45.2840 -73.9130 194° South 297 342 7,100 2,897 Climbing FlightAware ADS-B
Sun 03:44:10 PM 45.2680 -73.9160 186° South 299 344 7,600 2,640 Climbing FlightAware ADS-B
Sun 03:44:23 PM 45.2510 -73.9160 136° Southeast 287 330 8,200 3,000 Climbing FlightAware ADS-B
Sun 03:44:28 PM 45.2430 -73.9160 177° South 301 346 8,500 2,870 Climbing FlightAware ADS-B
Sun 03:44:46 PM 45.2180 -73.9140 177° South 302 348 9,300 2,348 Climbing FlightAware ADS-B
Sun 03:45:14 PM 45.1784 -73.9128 178° South 314 361 10,300 1,833 Climbing FlightAware ADS-B
Sun 03:45:22 PM 45.1660 -73.9120 178° South 325 374 10,400 1,000 Climbing FlightAware ADS-B
Sun 03:45:44 PM 45.1506 -73.9115 178° South 348 400 10,800 1,200 Climbing FlightAware ADS-B
Sun 03:45:52 PM 45.1190 -73.9100 177° South 357 411 11,000 1,737 Climbing FlightAware ADS-B
Sun 03:46:22 PM 45.0680 -73.9080 178° South 373 429 11,900 2,091 Climbing FlightAware ADS-B
Sun 03:46:58 PM 45.0050 -73.9050 177° South 384 442 13,300 2,583 Climbing FlightAware ADS-B
Sun 03:47:34 PM 44.9410 -73.9020 177° South 387 445 15,000 2,791 Climbing FlightAware ADS-B
Sun 03:47:41 PM 44.9431 -73.9017 178° South 387 445 15,300 2,108 Climbing FlightAware ADS-B
Sun 03:48:11 PM 44.8760 -73.8990 177° South 400 460 16,300 2,235 Climbing FlightAware ADS-B
Sun 03:48:32 PM 44.8391 -73.8969 178° South 401 461 17,200 2,571 Climbing FlightAware ADS-B
Sun 03:48:46 PM 44.8090 -73.8960 178° South 402 463 17,800 2,455 Climbing FlightAware ADS-B
Sun 03:49:16 PM 44.7530 -73.8930 177° South 406 467 19,000 2,273 Climbing FlightAware ADS-B
Sun 03:49:52 PM 44.6850 -73.8900 178° South 410 472 20,300 2,164 Climbing FlightAware ADS-B
Sun 03:50:17 PM 44.6399 -73.8877 178° South 412 474 21,200 2,276 Climbing FlightAware ADS-B
Sun 03:50:21 PM 44.6290 -73.8870 178° South 414 476 21,400 1,902 Climbing FlightAware ADS-B
Sun 03:50:58 PM 44.5590 -73.8840 177° South 423 487 22,500 1,459 Climbing FlightAware ADS-B
Sun 03:51:35 PM 44.4870 -73.8810 178° South 437 503 23,200 1,254 Climbing FlightAware ADS-B
Sun 03:52:05 PM 44.4240 -73.8780 177° South 449 517 23,900 1,360 Climbing FlightAware ADS-B
Sun 03:52:50 PM 44.3320 -73.8730 178° South 463 533 24,900 1,325 Climbing FlightAware ADS-B
Sun 03:53:22 PM 44.2600 -73.8700 177° South 472 543 25,600 1,347 Climbing FlightAware ADS-B
Sun 03:53:39 PM 44.2213 -73.8683 178° South 476 548 26,000 1,350 Climbing FlightAware ADS-B
Sun 03:54:02 PM 44.1710 -73.8660 177° South 481 554 26,500 1,333 Climbing FlightAware ADS-B
Sun 03:54:33 PM 44.1030 -73.8630 177° South 485 558 27,200 1,433 Climbing FlightAware ADS-B
Sun 03:55:09 PM 44.0210 -73.8590 178° South 489 563 28,100 1,256 Climbing FlightAware ADS-B
Sun 03:55:16 PM 44.0175 -73.8590 178° South 489 563 28,100 1,200 Level FlightAware ADS-B
Sun 03:55:44 PM 43.9420 -73.8560 178° South 492 566 28,800 1,320 Climbing FlightAware ADS-B
Sun 03:56:06 PM 43.8918 -73.8535 178° South 496 571 29,200 1,113 Climbing FlightAware ADS-B
Sun 03:57:21 PM 43.7189 -73.8457 178° South 504 580 30,600 1,208 Climbing FlightAware ADS-B
Sun 03:58:30 PM 43.5586 -73.8385 178° South 505 581 32,100 1,119 Climbing FlightAware ADS-B
Sun 03:59:35 PM 43.4041 -73.8316 178° South 509 586 33,100 1,000 Climbing FlightAware ADS-B
Sun 04:00:06 PM 43.3341 -73.8286 178° South 510 587 33,700 1,091 Climbing FlightAware ADS-B
Sun 04:00:41 PM 43.2497 -73.8249 178° South 510 587 34,300 1,000 Climbing FlightAware ADS-B
Sun 04:01:12 PM 43.1770 -73.8217 178° South 510 587 34,800 885 Climbing FlightAware ADS-B
Sun 04:01:42 PM 43.1058 -73.8185 178° South 512 589 35,200 700 Climbing FlightAware ADS-B
Sun 04:02:12 PM 43.0346 -73.8155 178° South 515 593 35,500 316 Climbing FlightAware ADS-B
Sun 04:04:14 PM 42.7458 -73.8031 178° South 512 589 36,000 188 Climbing FlightAware ADS-B
Sun 04:04:52 PM 42.6972 -73.8017 178° South 514 592 36,000  Level Boston Center
Sun 04:05:52 PM 42.5292 -73.8072 181° South 511 588 36,000  Level Boston Center
Sun 04:06:56 PM 42.3889 -73.8111 181° South 511 588 36,000  Level Boston Center
Sun 04:07:56 PM 42.2489 -73.8128 181° South 509 586 36,000  Level Boston Center
Sun 04:13:38 PM 41.4755 -74.0995 200° South 484 557 36,000  Level FlightAware ADS-B (KWWD)
Sun 04:14:24 PM 41.3849 -74.1428 200° South 484 557 36,000  Level FlightAware ADS-B (KWWD)
Sun 04:15:03 PM 41.2948 -74.1862 200° South 484 557 36,000  Level FlightAware ADS-B (KWWD)
Sun 04:15:59 PM 41.1807 -74.2405 200° South 492 566 36,000  Level FlightAware ADS-B (KWWD)
Sun 04:16:51 PM 41.0630 -74.2963 200° South 492 566 36,000  Level FlightAware ADS-B (KWWD)
Sun 04:17:22 PM 40.9978 -74.3271 200° South 493 567 36,000  Level FlightAware ADS-B (KWWD)
Sun 04:18:09 PM 40.8964 -74.3749 200° South 493 567 36,000  Level FlightAware ADS-B (KPHL)
Sun 04:18:50 PM 40.8600 -74.3924 200° South 492 566 36,000  Level FlightAware ADS-B (KPHL)
Sun 04:19:22 PM 40.7404 -74.4491 200° South 484 557 36,000  Level FlightAware ADS-B (KWWD)
Sun 04:19:58 PM 40.6627 -74.4857 200° South 489 563 36,000  Level FlightAware ADS-B (KPHL)
Sun 04:20:33 PM 40.5893 -74.5200 200° South 480 552 36,000  Level FlightAware ADS-B (KWWD)
Sun 04:21:09 PM 40.5132 -74.5555 200° South 477 549 36,000  Level FlightAware ADS-B (KWWD)
Sun 04:21:39 PM 40.4501 -74.5847 200° South 482 555 36,000  Level FlightAware ADS-B (KWWD)
Sun 04:22:17 PM 40.3750 -74.6197 200° South 480 552 36,000  Level FlightAware ADS-B (KWWD)
Sun 04:22:58 PM 40.2844 -74.6618 200° South 478 550 36,000  Level FlightAware ADS-B (KWWD)
Sun 04:23:28 PM 40.2214 -74.6912 200° South 476 548 36,000  Level FlightAware ADS-B (KWWD)
Sun 04:24:05 PM 40.1446 -74.7265 200° South 482 555 36,000  Level FlightAware ADS-B (KPHL)
Sun 04:24:35 PM 40.0823 -74.7551 199° South 482 555 36,000  Level FlightAware ADS-B (KPHL)
Sun 04:25:09 PM 40.0100 -74.7882 200° South 475 547 36,000  Level FlightAware ADS-B (KWWD)
Sun 04:25:49 PM 39.9251 -74.8273 200° South 480 552 36,000  Level FlightAware ADS-B (KPHL)
Sun 04:26:19 PM 39.8636 -74.8558 200° South 478 550 36,000  Level FlightAware ADS-B (KWWD)
Sun 04:26:49 PM 39.8018 -74.8884 203° Southwest 475 547 36,000  Level FlightAware ADS-B (KPHL)
Sun 04:27:35 PM 39.7083 -74.9394 203° Southwest 473 544 36,000  Level FlightAware ADS-B (KPHL)
Sun 04:28:10 PM 39.6398 -74.9758 202° Southwest 471 542 36,000  Level FlightAware ADS-B (KWWD)
Sun 04:28:49 PM 39.5597 -75.0178 202° Southwest 469 540 36,000  Level FlightAware ADS-B (KWWD)
Sun 04:29:19 PM 39.4996 -75.0491 202° Southwest 469 540 36,000  Level FlightAware ADS-B (KWWD)
Sun 04:29:49 PM 39.4399 -75.0801 202° Southwest 468 539 36,000  Level FlightAware ADS-B (KWWD)
Sun 04:30:24 PM 39.3830 -75.1097 202° Southwest 466 536 36,000  Level FlightAware ADS-B (KPHL)
Sun 04:30:47 PM 39.3250 -75.1465 212° Southwest 458 527 36,000  Level FlightAware ADS-B (KWWD)
Sun 04:31:24 PM 39.2569 -75.1999 212° Southwest 463 533 36,000  Level FlightAware ADS-B (KPHL)
Sun 04:31:55 PM 39.2019 -75.2432 212° Southwest 463 533 36,000  Level FlightAware ADS-B (KPHL)
Sun 04:32:07 PM 39.1802 -75.2603 212° Southwest 456 525 36,000  Level FlightAware ADS-B (KWWD)
Sun 04:32:39 PM 39.1191 -75.3027 203° Southwest 466 536 36,000  Level FlightAware ADS-B (KPHL)
Sun 04:32:56 PM 39.0836 -75.3187 196° South 470 541 36,000  Level FlightAware ADS-B (KWWD)
Sun 04:33:40 PM 38.9908 -75.3477 194° South 471 542 36,000  Level FlightAware ADS-B (KPHL)
Sun 04:34:21 PM 38.9158 -75.3710 194° South 464 534 36,000  Level FlightAware ADS-B (KWWD)
Sun 04:34:54 PM 38.8349 -75.3966 194° South 470 541 36,000  Level FlightAware ADS-B (KPHL)
Sun 04:35:25 PM 38.7696 -75.4171 194° South 461 531 36,000  Level FlightAware ADS-B (KWWD)
Sun 04:36:03 PM 38.6890 -75.4424 194° South 461 531 36,000  Level FlightAware ADS-B (KWWD)
Sun 04:36:37 PM 38.6401 -75.4576 194° South 469 540 36,000  Level FlightAware ADS-B (EGAA / BFS)
Sun 04:37:20 PM 38.5263 -75.4929 194° South 464 534 36,000  Level FlightAware ADS-B (KWWD)
Sun 04:37:51 PM 38.4614 -75.5128 194° South 472 543 36,000  Level FlightAware ADS-B (EGAA / BFS)
Sun 04:38:22 PM 38.3969 -75.5328 194° South 473 544 36,000  Level FlightAware ADS-B (EGAA / BFS)
Sun 04:38:56 PM 38.3312 -75.5529 194° South 472 543 36,000  Level FlightAware ADS-B (EGAA / BFS)
Sun 04:39:36 PM 38.2548 -75.5764 194° South 470 541 36,000  Level FlightAware ADS-B (EGAA / BFS)
Sun 04:40:09 PM 38.1696 -75.6025 194° South 463 533 36,000  Level FlightAware ADS-B (KWWD)
Sun 04:40:42 PM 38.1195 -75.6178 194° South 469 540 36,000  Level FlightAware ADS-B (EGAA / BFS)
Sun 04:41:16 PM 38.0580 -75.6366 194° South 469 540 36,000  Level FlightAware ADS-B (EGAA / BFS)
Sun 04:41:46 PM 37.9705 -75.6632 194° South 469 540 36,000  Level FlightAware ADS-B (EGAA / BFS)
Sun 04:42:51 PM 37.8277 -75.7065 194° South 461 531 36,000  Level FlightAware ADS-B (KWWD)
Sun 04:43:29 PM 37.7472 -75.7309 194° South 461 531 36,000  Level FlightAware ADS-B (KWWD)
Sun 04:44:12 PM 37.6609 -75.7569 194° South 461 531 36,000  Level FlightAware ADS-B (KWWD)
Sun 04:45:05 PM 37.5448 -75.7918 194° South 463 533 36,000  Level FlightAware ADS-B (KWWD)
Sun 04:45:51 PM 37.4468 -75.8213 194° South 463 533 36,000  Level FlightAware ADS-B (KWWD)
Sun 04:46:42 PM 37.3384 -75.8538 194° South 465 535 36,000  Level FlightAware ADS-B (KWWD)
Sun 04:47:35 PM 37.2253 -75.8876 194° South 464 534 36,000  Level FlightAware ADS-B (KWWD)
Sun 04:48:11 PM 37.1505 -75.9097 194° South 462 532 36,000  Level FlightAware ADS-B (KWWD)
Sun 04:48:50 PM 37.0660 -75.9348 194° South 461 531 36,000  Level FlightAware ADS-B (KWWD)
Sun 04:49:30 PM 36.9815 -75.9599 194° South 462 532 36,000  Level FlightAware ADS-B (KWWD)
Sun 04:50:29 PM 36.8573 -75.9967 194° South 462 532 36,000  Level FlightAware ADS-B (KWWD)
Sun 04:51:48 PM 36.6928 -76.0450 194° South 462 532 36,000  Level FlightAware ADS-B (KWWD)
Sun 04:52:20 PM 36.6226 -76.0655 193° South 465 535 36,000  Level FlightAware ADS-B (KWWD)
Sun 04:52:53 PM 36.5630 -76.0828 193° South 473 544 36,000  Level FlightAware ADS-B (KIAD)
Sun 04:53:42 PM 36.4461 -76.1171 193° South 475 547 36,000  Level FlightAware ADS-B (KIAD)
Sun 04:54:12 PM 36.3824 -76.1356 193° South 475 547 36,000  Level FlightAware ADS-B (KIAD)
Sun 04:54:51 PM 36.3008 -76.1591 193° South 476 548 36,000  Level FlightAware ADS-B (KIAD)
Sun 04:55:21 PM 36.2355 -76.1780 193° South 476 548 36,000  Level FlightAware ADS-B (KWWD)
Sun 04:55:57 PM 36.1672 -76.1979 193° South 476 548 36,000  Level FlightAware ADS-B (KIAD)
Sun 04:56:42 PM 36.0613 -76.2283 193° South 473 544 36,000  Level FlightAware ADS-B (KIAD)
Sun 04:57:27 PM 35.9707 -76.2544 193° South 469 540 36,000  Level FlightAware ADS-B (KIAD)
Sun 04:58:09 PM 35.8756 -76.2819 193° South 470 541 36,000  Level FlightAware ADS-B (KIAD)
Sun 04:58:42 PM 35.8081 -76.3012 193° South 468 539 36,000  Level FlightAware ADS-B (KIAD)
Sun 04:59:25 PM 35.7306 -76.3234 193° South 464 534 36,000  Level FlightAware ADS-B (KIAD)
Sun 04:59:57 PM 35.6532 -76.3454 193° South 464 534 36,000  Level FlightAware ADS-B (KIAD)
Sun 05:00:42 PM 35.5580 -76.3724 193° South 463 533 36,000  Level FlightAware ADS-B (KIAD)
Sun 05:01:25 PM 35.4696 -76.3976 193° South 461 531 36,000  Level FlightAware ADS-B (KIAD)
Sun 05:01:56 PM 35.4023 -76.4167 193° South 460 529 36,000  Level FlightAware ADS-B (KIAD)
Sun 05:02:34 PM 35.3253 -76.4385 193° South 460 529 36,000  Level FlightAware ADS-B (KIAD)
Sun 05:03:37 PM 35.2056 -76.4667 193° South 465 535 36,000  Level Washington Center
Sun 05:04:35 PM 35.0842 -76.5058 195° South 454 522 36,000  Level Washington Center
Sun 05:05:36 PM 34.9608 -76.5425 194° South 454 522 36,000  Level Washington Center
Sun 05:06:37 PM 34.8333 -76.5739 191° South 454 522 36,000  Level Washington Center
Sun 05:07:37 PM 34.7078 -76.6103 193° South 459 528 36,000  Level Washington Center
Sun 05:08:37 PM 34.5844 -76.6467 194° South 459 528 36,000  Level Washington Center
Sun 05:09:36 PM 34.4547 -76.6803 192° South 464 534 36,000  Level Washington Center
Sun 05:10:37 PM 34.3292 -76.7161 193° South 464 534 36,000  Level Washington Center
Sun 05:11:37 PM 34.2039 -76.7497 193° South 469 540 36,000  Level Washington Center
Sun 05:12:35 PM 34.0783 -76.7831 192° South 469 540 36,000  Level Washington Center
Sun 05:13:36 PM 33.9528 -76.8189 193° South 469 540 36,000  Level Washington Center
Sun 05:15:23 PM 33.7244 -76.8800 193° South 443 510 36,000  Level Jacksonville Center
Sun 05:16:23 PM 33.5967 -76.9161 193° South 451 519 36,000  Level Jacksonville Center
Sun 05:17:23 PM 33.4711 -76.9494 192° South 470 541 36,000 -50 Level Jacksonville Center
Sun 05:18:23 PM 33.3433 -76.9831 192° South 476 548 35,900  Descending Jacksonville Center
Sun 05:19:23 PM 33.2175 -77.0161 192° South 471 542 36,000  Climbing Jacksonville Center
Sun 05:20:23 PM 33.0939 -77.0492 193° South 466 536 35,900 -50 Descending Jacksonville Center
Sun 05:21:23 PM 32.9703 -77.0819 193° South 466 536 35,900 50 Level Jacksonville Center
Sun 05:22:23 PM 32.8444 -77.1172 193° South 471 542 36,000 50 Climbing Jacksonville Center
Sun 05:23:23 PM 32.7208 -77.1497 192° South 465 535 36,000  Level Jacksonville Center
Sun 05:24:23 PM 32.5992 -77.1822 193° South 465 535 36,000  Level Jacksonville Center
Sun 05:25:23 PM 32.4794 -77.2119 192° South 459 528 36,000  Level Jacksonville Center
Sun 05:26:23 PM 32.3578 -77.2464 193° South 454 522 36,000 -50 Level Jacksonville Center
Sun 05:27:23 PM 32.2361 -77.2786 193° South 454 522 35,900  Descending Jacksonville Center
Sun 05:28:23 PM 32.1144 -77.3106 193° South 449 517 36,000 50 Climbing Jacksonville Center
Sun 05:29:23 PM 31.9967 -77.3372 191° South 443 510 36,000  Level Jacksonville Center
Sun 05:30:23 PM 31.8750 -77.3714 193° South 449 517 36,000  Level Jacksonville Center
Sun 05:31:23 PM 31.7553 -77.4031 193° South 449 517 36,000  Level Jacksonville Center
Sun 05:32:23 PM 31.6356 -77.4322 192° South 449 517 36,000 -50 Level Jacksonville Center
Sun 05:33:23 PM 31.5200 -77.4633 193° South 449 517 35,900  Descending Jacksonville Center
Sun 05:34:23 PM 31.4044 -77.4944 193° South 444 511 36,000 50 Climbing Jacksonville Center
Sun 05:35:23 PM 31.2908 -77.5203 191° South 439 505 36,000  Level Jacksonville Center
Sun 05:36:23 PM 31.1731 -77.5514 193° South 434 499 36,000 500 Level Jacksonville Center
Sun 05:37:23 PM 31.0572 -77.5772 191° South 427 491 37,000 950 Climbing Jacksonville Center
Sun 05:38:23 PM 30.9397 -77.6081 193° South 427 491 37,900 500 Climbing Jacksonville Center
Sun 05:39:23 PM 30.8242 -77.6411 194° South 427 491 38,000 50 Climbing Jacksonville Center
Sun 05:40:23 PM 30.7064 -77.6744 194° South 427 491 38,000  Level Jacksonville Center
Sun 05:41:23 PM 30.5864 -77.6953 189° South 427 491 38,000 -36 Level Jacksonville Center
Sun 05:43:08 PM 30.3936 -77.7581 196° South 430 495 37,900  Descending Miami Center
Sun 05:44:10 PM 30.2886 -77.7869 193° South 430 495 38,000  Climbing Miami Center
Sun 05:45:12 PM 30.1503 -77.8236 193° South 428 493 37,900  Descending Miami Center
Sun 05:46:14 PM 30.0347 -77.8553 193° South 427 491 38,000  Climbing Miami Center
Sun 05:47:16 PM 29.9200 -77.8878 194° South 426 490 37,900  Descending Miami Center
Sun 05:48:18 PM 29.8022 -77.9189 193° South 427 491 38,000  Climbing Miami Center
Sun 05:49:20 PM 29.6828 -77.8964 171° South 436 502 37,900  Descending Miami Center
Sun 05:50:22 PM 29.5622 -77.8631 166° South 441 507 38,000 48 Climbing Miami Center
Sun 05:51:24 PM 29.4175 -77.8408 172° South 442 509 38,000  Level Miami Center
Sun 05:52:26 PM 29.2942 -77.8200 172° South 442 509 38,000  Level Miami Center
Sun 05:53:28 PM 29.1689 -77.8003 172° South 446 513 38,000  Level Miami Center
Sun 05:54:30 PM 29.0467 -77.7797 172° South 446 513 38,000 -49 Level Miami Center
Sun 05:55:31 PM 28.9239 -77.7606 172° South 446 513 37,900  Descending Miami Center
Sun 05:56:33 PM 28.8011 -77.7408 172° South 446 513 38,000 48 Climbing Miami Center
Sun 05:57:35 PM 28.6539 -77.7175 172° South 445 512 38,000  Level Miami Center
Sun 05:58:37 PM 28.5289 -77.6964 172° South 445 512 38,000 -48 Level Miami Center
Sun 05:59:39 PM 28.4108 -77.6783 172° South 445 512 37,900  Descending Miami Center
Sun 06:00:41 PM 28.2894 -77.6586 172° South 442 509 38,000  Climbing Miami Center
Sun 06:01:43 PM 28.1692 -77.6406 172° South 441 507 37,900  Descending Miami Center
Sun 06:02:45 PM 28.0475 -77.6269 174° South 440 506 38,000  Climbing Miami Center
Sun 06:03:47 PM 27.9264 -77.6217 178° South 439 505 37,900  Descending Miami Center
Sun 06:04:49 PM 27.7819 -77.6139 177° South 435 501 38,000 48 Climbing Miami Center
Sun 06:05:51 PM 27.6608 -77.6064 177° South 435 501 38,000 -48 Level Miami Center
Sun 06:06:53 PM 27.5392 -77.5989 177° South 435 501 37,900 -48 Descending Miami Center
Sun 06:07:55 PM 27.4178 -77.5933 178° South 435 501 37,900 48 Level Miami Center
Sun 06:08:57 PM 27.2839 -77.5853 177° South 435 501 38,000  Climbing Miami Center
Sun 06:09:59 PM 27.1647 -77.5792 177° South 428 493 37,900  Descending Miami Center
Sun 06:11:01 PM 27.0392 -77.5717 177° South 443 510 38,000 48 Climbing Miami Center
Sun 06:12:03 PM 26.9147 -77.5642 177° South 444 511 38,000 -144 Level Miami Center
Sun 06:17:57 PM 26.1665 -77.5172 176° South 444 511 37,000 -112 Descending FlightAware ADS-B
Sun 06:20:58 PM 25.7876 -77.4935 176° South 447 514 37,000  Level FlightAware ADS-B
Sun 06:21:45 PM 25.6954 -77.4878 176° South 447 514 37,000  Level FlightAware ADS-B
Sun 06:22:18 PM 25.6247 -77.4835 176° South 447 514 37,000  Level FlightAware ADS-B
Sun 06:23:00 PM 25.5365 -77.4780 176° South 446 513 37,000  Level FlightAware ADS-B
Sun 06:23:41 PM 25.4518 -77.4727 176° South 446 513 37,000  Level FlightAware ADS-B
Sun 06:24:11 PM 25.3901 -77.4690 176° South 445 512 37,000  Level FlightAware ADS-B
Sun 06:25:21 PM 25.2407 -77.4597 176° South 443 510 37,000  Level FlightAware ADS-B
Sun 06:26:01 PM 25.1595 -77.4546 176° South 441 507 37,000  Level FlightAware ADS-B
Sun 06:26:50 PM 25.0565 -77.4491 180° South 440 506 37,000  Level FlightAware ADS-B
Sun 06:27:11 PM 25.0148 -77.4551 191° South 438 504 37,000  Level FlightAware ADS-B
Sun 06:27:52 PM 24.9490 -77.4822 203° Southwest 439 505 37,000  Level FlightAware ADS-B
Sun 06:28:32 PM 24.8739 -77.5172 203° Southwest 440 506 37,000  Level Miami Center
Sun 06:29:33 PM 24.7614 -77.5703 203° Southwest 440 506 37,000  Level Miami Center
Sun 06:30:35 PM 24.6467 -77.6231 203° Southwest 440 506 37,000  Level Miami Center
Sun 06:31:37 PM 24.5333 -77.6764 203° Southwest 442 509 37,000 -242 Level Miami Center
Sun 06:32:39 PM 24.4169 -77.7303 203° Southwest 445 512 36,500 -1,024 Descending Miami Center
Sun 06:33:40 PM 24.3067 -77.7814 203° Southwest 440 506 34,900 -1,659 Descending Miami Center
Sun 06:34:42 PM 24.2011 -77.8300 203° Southwest 425 489 33,100 -1,790 Descending Miami Center
Sun 06:35:44 PM 24.0806 -77.8858 203° Southwest 405 466 31,200 -1,694 Descending Miami Center
Sun 06:36:46 PM 23.9828 -77.9306 203° Southwest 393 452 29,600 -1,548 Descending Miami Center
Sun 06:38:00 PM 23.8381 -77.9651 197° South  Level FlightAware Approximate
Sun 06:45:00 PM 23.0200 -78.1775 192° South  Level FlightAware Approximate
Sun 06:46:00 PM 22.9024 -78.2046 192° South  Level FlightAware Approximate
Sun 06:47:00 PM 22.7847 -78.2312 192° South  Level FlightAware Approximate
Sun 06:48:00 PM 22.6678 -78.2607 197° South  Level FlightAware Approximate
Sun 06:49:00 PM 22.5528 -78.2961 190° South  Level FlightAware Approximate
Sun 06:50:00 PM 22.4610 -78.3284 190° South  Level Estimated
Sun 06:51:00 PM 22.4610 -78.3284 190° South  Level Estimated
Sun 06:52:00 PM 22.4610 -78.3284 190° South  Level Estimated

Login

Don't have an account? Register now (free) for customized features, flight alerts, and more!